createdAt,value
2023-02-17T00:01:38.550Z,10.73
2023-02-17T00:04:24.165Z,10.03
2023-02-17T00:07:09.670Z,10.60
2023-02-17T00:09:55.082Z,10.50
2023-02-17T00:12:40.811Z,9.52
2023-02-17T00:15:26.154Z,10.02
2023-02-17T00:18:11.931Z,9.50
2023-02-17T00:20:57.303Z,9.15
2023-02-17T00:23:43.609Z,10.35
2023-02-17T00:26:28.998Z,9.60
2023-02-17T00:29:15.094Z,8.67
2023-02-17T00:32:00.909Z,9.27
2023-02-17T00:34:46.250Z,9.50
2023-02-17T00:37:35.267Z,9.23
2023-02-17T00:40:20.527Z,8.80
2023-02-17T00:43:06.064Z,9.73
2023-02-17T00:45:51.580Z,10.02
2023-02-17T00:48:37.077Z,10.25
2023-02-17T00:51:22.720Z,9.05
2023-02-17T00:54:08.461Z,9.65
2023-02-17T00:56:53.924Z,10.48
2023-02-17T00:59:39.700Z,10.40
2023-02-17T01:02:25.253Z,9.98
2023-02-17T01:05:10.728Z,9.32
2023-02-17T01:07:56.468Z,8.73
2023-02-17T01:10:44.162Z,9.57
2023-02-17T01:13:29.979Z,9.90
2023-02-17T01:16:21.064Z,9.90
2023-02-17T01:19:09.244Z,9.82
2023-02-17T01:21:54.562Z,9.82
2023-02-17T01:24:40.402Z,9.50
2023-02-17T01:27:25.905Z,8.45
2023-02-17T01:30:11.888Z,8.40
2023-02-17T01:32:57.782Z,10.40
2023-02-17T01:35:43.262Z,9.30
2023-02-17T01:38:28.636Z,8.90
2023-02-17T01:41:14.828Z,9.97
2023-02-17T01:44:22.956Z,9.77
2023-02-17T01:47:12.542Z,9.55
2023-02-17T01:49:58.820Z,10.07
2023-02-17T01:52:45.003Z,10.68
2023-02-17T01:55:32.473Z,9.82
2023-02-17T01:58:20.798Z,9.13
2023-02-17T02:01:07.033Z,8.53
2023-02-17T02:03:53.322Z,9.40
2023-02-17T02:06:42.673Z,8.75
2023-02-17T02:09:35.342Z,9.98
2023-02-17T02:12:24.180Z,8.43
2023-02-17T02:15:16.440Z,9.52
2023-02-17T02:18:32.870Z,7.90
2023-02-17T02:22:11.477Z,9.50
2023-02-17T02:25:18.196Z,9.13
2023-02-17T02:28:26.833Z,9.35
2023-02-17T02:31:35.060Z,8.80
2023-02-17T02:34:23.686Z,9.43
2023-02-17T02:37:16.756Z,9.10
2023-02-17T02:40:08.117Z,9.70
2023-02-17T02:42:54.493Z,8.88
2023-02-17T02:45:40.134Z,9.93
2023-02-17T02:48:26.575Z,8.88
2023-02-17T02:51:14.917Z,8.82
2023-02-17T02:54:42.292Z,9.43
2023-02-17T02:57:55.699Z,9.25
2023-02-17T03:01:02.257Z,9.48
2023-02-17T03:04:01.336Z,8.40
2023-02-17T03:06:53.100Z,8.55
2023-02-17T03:09:39.211Z,9.07
2023-02-17T03:12:26.094Z,8.27
2023-02-17T03:15:29.293Z,7.82
2023-02-17T03:18:15.038Z,7.17
2023-02-17T03:21:10.331Z,7.75
2023-02-17T03:23:55.688Z,8.07
2023-02-17T03:26:41.147Z,7.35
2023-02-17T03:29:26.821Z,7.13
2023-02-17T03:32:12.873Z,7.40
2023-02-17T03:34:58.273Z,7.18
2023-02-17T03:37:44.046Z,6.97
2023-02-17T03:40:29.434Z,7.20
2023-02-17T03:43:17.870Z,6.72
2023-02-17T03:46:03.971Z,7.07
2023-02-17T03:48:49.901Z,6.18
2023-02-17T03:51:35.529Z,6.55
2023-02-17T03:54:21.172Z,6.53
2023-02-17T03:57:06.601Z,5.90
2023-02-17T03:59:52.319Z,6.88
2023-02-17T04:02:37.906Z,5.65
2023-02-17T04:05:24.137Z,6.32
2023-02-17T04:08:09.574Z,6.20
2023-02-17T04:10:57.176Z,6.75
2023-02-17T04:13:42.776Z,5.80
2023-02-17T04:16:28.432Z,6.38
2023-02-17T04:19:14.048Z,6.55
2023-02-17T04:21:59.466Z,6.43
2023-02-17T04:24:44.841Z,6.38
2023-02-17T04:27:30.275Z,6.40
2023-02-17T04:30:16.247Z,6.72
2023-02-17T04:33:02.003Z,7.05
2023-02-17T04:35:47.568Z,6.30
2023-02-17T04:38:33.470Z,6.38
2023-02-17T04:41:18.849Z,6.88
2023-02-17T04:44:04.297Z,6.38
2023-02-17T04:46:49.536Z,7.22
2023-02-17T04:49:34.866Z,6.90
2023-02-17T04:52:20.413Z,6.85
2023-02-17T04:55:06.680Z,7.03
2023-02-17T04:57:52.191Z,7.43
2023-02-17T05:00:37.971Z,7.60
2023-02-17T05:03:23.457Z,6.80
2023-02-17T05:06:09.056Z,6.93
2023-02-17T05:08:54.357Z,6.93
2023-02-17T05:11:40.027Z,6.95
2023-02-17T05:14:25.763Z,7.35
2023-02-17T05:17:11.041Z,7.33
2023-02-17T05:19:56.580Z,7.68
2023-02-17T05:22:41.931Z,6.70
2023-02-17T05:25:27.776Z,6.72
2023-02-17T05:28:13.120Z,7.15
2023-02-17T05:31:00.179Z,6.00
2023-02-17T05:33:45.497Z,6.03
2023-02-17T05:36:31.093Z,6.23
2023-02-17T05:39:16.796Z,6.85
2023-02-17T05:42:02.388Z,6.30
2023-02-17T05:44:48.030Z,6.50
2023-02-17T05:47:35.346Z,5.90
2023-02-17T05:50:20.721Z,6.13
2023-02-17T05:53:06.364Z,6.15
2023-02-17T05:55:51.923Z,6.35
2023-02-17T05:58:37.294Z,5.80
2023-02-17T06:01:22.949Z,6.13
2023-02-17T06:04:08.273Z,5.90
2023-02-17T06:06:53.911Z,7.13
2023-02-17T06:09:39.246Z,6.35
2023-02-17T06:12:24.502Z,7.10
2023-02-17T06:15:10.628Z,6.45
2023-02-17T06:17:56.029Z,8.15
2023-02-17T06:20:41.779Z,5.60
2023-02-17T06:23:27.270Z,6.18
2023-02-17T06:26:12.632Z,6.93
2023-02-17T06:28:58.033Z,6.40
2023-02-17T06:31:43.589Z,6.60
2023-02-17T06:34:29.227Z,6.40
2023-02-17T06:37:14.824Z,7.07
2023-02-17T06:40:00.493Z,6.83
2023-02-17T06:42:45.680Z,6.23
2023-02-17T06:45:31.340Z,6.40
2023-02-17T06:48:16.780Z,6.60
2023-02-17T06:51:02.537Z,20.00
2023-02-17T06:53:48.178Z,7.30
2023-02-17T06:56:33.360Z,7.03
2023-02-17T06:59:19.255Z,5.90
2023-02-17T07:02:05.577Z,6.15
2023-02-17T07:04:51.270Z,6.22
2023-02-17T07:07:36.865Z,6.72
2023-02-17T07:10:22.132Z,6.47
2023-02-17T07:13:07.522Z,6.05
2023-02-17T07:15:53.132Z,6.45
2023-02-17T07:18:39.090Z,5.80
2023-02-17T07:21:24.954Z,6.13
2023-02-17T07:24:10.922Z,6.60
2023-02-17T07:26:56.527Z,5.57
2023-02-17T07:29:42.126Z,6.40
2023-02-17T07:32:27.541Z,5.50
2023-02-17T07:35:13.079Z,5.55
2023-02-17T07:37:58.661Z,5.13
2023-02-17T07:40:44.333Z,5.10
2023-02-17T07:43:29.932Z,4.90
2023-02-17T07:46:15.470Z,5.30
2023-02-17T07:49:01.080Z,5.32
2023-02-17T07:51:47.051Z,5.23
2023-02-17T07:54:32.449Z,5.68
2023-02-17T07:57:17.687Z,5.65
2023-02-17T08:00:04.880Z,5.05
2023-02-17T08:02:50.233Z,5.18
2023-02-17T08:05:38.658Z,4.72
2023-02-17T08:08:42.303Z,5.82
2023-02-17T08:11:49.772Z,5.40
2023-02-17T08:14:35.586Z,5.57
2023-02-17T08:17:21.058Z,5.25
2023-02-17T08:20:08.951Z,4.95
2023-02-17T08:22:54.932Z,5.55
2023-02-17T08:25:40.341Z,5.45
2023-02-17T08:28:25.825Z,4.77
2023-02-17T08:31:28.522Z,5.38
2023-02-17T08:34:14.463Z,5.18
2023-02-17T08:37:00.993Z,4.70
2023-02-17T08:39:46.390Z,4.30
2023-02-17T08:42:32.074Z,4.35
2023-02-17T08:45:18.021Z,4.78
2023-02-17T08:48:04.819Z,5.00
2023-02-17T08:50:50.143Z,4.60
2023-02-17T08:53:35.832Z,5.20
2023-02-17T08:56:22.657Z,5.10
2023-02-17T08:59:09.942Z,4.82
2023-02-17T09:01:55.823Z,5.28
2023-02-17T09:04:41.397Z,5.32
2023-02-17T09:07:26.798Z,4.72
2023-02-17T09:10:12.801Z,4.72
2023-02-17T09:12:58.124Z,5.20
2023-02-17T09:15:43.988Z,4.70
2023-02-17T09:18:29.504Z,4.65
2023-02-17T09:21:14.819Z,4.23
2023-02-17T09:24:00.565Z,4.57
2023-02-17T09:26:46.120Z,4.13
2023-02-17T09:29:31.513Z,4.82
2023-02-17T09:32:17.189Z,4.37
2023-02-17T09:35:05.881Z,4.68
2023-02-17T09:37:52.208Z,4.60
2023-02-17T09:40:48.349Z,4.25
2023-02-17T09:43:34.080Z,4.13
2023-02-17T09:46:32.171Z,3.90
2023-02-17T09:49:22.212Z,3.88
2023-02-17T09:52:22.605Z,3.40
2023-02-17T09:55:15.262Z,3.65
2023-02-17T09:58:12.712Z,3.45
2023-02-17T10:01:02.280Z,3.38
2023-02-17T10:04:08.528Z,4.10
2023-02-17T10:07:09.678Z,3.05
2023-02-17T10:10:06.259Z,3.08
2023-02-17T10:12:56.987Z,3.20
2023-02-17T10:15:48.104Z,2.65
2023-02-17T10:18:39.560Z,2.87
2023-02-17T10:21:37.183Z,2.50
2023-02-17T10:24:23.926Z,2.30
2023-02-17T10:27:22.878Z,2.30
2023-02-17T10:30:38.940Z,2.42
2023-02-17T10:33:49.383Z,2.38
2023-02-17T10:36:48.157Z,2.27
2023-02-17T10:39:51.358Z,2.25
2023-02-17T10:42:39.013Z,2.25
2023-02-17T10:45:32.210Z,1.92
2023-02-17T10:48:36.594Z,2.22
2023-02-17T10:51:29.011Z,2.00
2023-02-17T10:54:35.969Z,2.60
2023-02-17T10:57:22.794Z,2.30
2023-02-17T11:00:15.805Z,1.83
2023-02-17T11:03:01.379Z,2.13
2023-02-17T11:05:54.451Z,2.20
2023-02-17T11:08:46.520Z,2.35
2023-02-17T11:11:36.010Z,2.75
2023-02-17T11:14:27.925Z,2.70
2023-02-17T11:17:34.560Z,2.50
2023-02-17T11:20:19.938Z,2.83
2023-02-17T11:23:24.683Z,2.42
2023-02-17T11:26:17.173Z,2.42
2023-02-17T11:29:21.280Z,3.00
2023-02-17T11:32:10.962Z,2.35
2023-02-17T11:34:58.812Z,2.20
2023-02-17T11:37:44.209Z,2.47
2023-02-17T11:40:32.454Z,2.85
2023-02-17T11:43:20.774Z,2.85
2023-02-17T11:46:17.953Z,2.83
2023-02-17T11:49:40.372Z,3.05
2023-02-17T11:52:55.304Z,2.95
2023-02-17T11:55:53.914Z,2.70
2023-02-17T11:59:13.150Z,2.90
2023-02-17T12:02:19.803Z,3.03
2023-02-17T12:05:36.166Z,3.03
2023-02-17T12:08:47.812Z,3.90
2023-02-17T12:11:42.862Z,3.10
2023-02-17T12:14:40.053Z,3.13
2023-02-17T12:17:42.647Z,3.42
2023-02-17T12:20:55.603Z,3.20
2023-02-17T12:24:06.895Z,3.38
2023-02-17T12:27:04.308Z,3.40
2023-02-17T12:30:09.934Z,4.30
2023-02-17T12:33:05.830Z,3.80
2023-02-17T12:36:02.809Z,3.92
2023-02-17T12:38:57.128Z,3.97
2023-02-17T12:42:04.891Z,4.15
2023-02-17T12:44:58.559Z,3.25
2023-02-17T12:48:11.034Z,3.67
2023-02-17T12:51:17.989Z,4.70
2023-02-17T12:54:15.555Z,4.28
2023-02-17T12:57:10.162Z,3.67
2023-02-17T12:59:58.402Z,3.85
2023-02-17T13:02:44.018Z,3.05
2023-02-17T13:05:39.564Z,3.55
2023-02-17T13:08:55.886Z,2.92
2023-02-17T13:11:41.451Z,3.00
2023-02-17T13:14:37.964Z,2.65
2023-02-17T13:17:31.886Z,3.25
2023-02-17T13:20:17.213Z,3.05
2023-02-17T13:23:06.237Z,3.20
2023-02-17T13:26:17.836Z,3.03
2023-02-17T13:29:20.384Z,3.03
2023-02-17T13:32:14.701Z,3.10
2023-02-17T13:35:05.717Z,2.42
2023-02-17T13:37:51.147Z,2.88
2023-02-17T13:40:40.494Z,2.88
2023-02-17T13:43:30.501Z,2.67
2023-02-17T13:46:23.924Z,2.83
2023-02-17T13:49:22.248Z,2.10
2023-02-17T13:52:24.922Z,2.30
2023-02-17T13:55:18.831Z,2.05
2023-02-17T13:58:04.310Z,2.40
2023-02-17T14:00:50.056Z,2.10
2023-02-17T14:03:42.685Z,2.55
2023-02-17T14:06:36.164Z,2.03
2023-02-17T14:09:27.489Z,1.83
2023-02-17T14:12:23.375Z,1.70
2023-02-17T14:15:19.872Z,1.60
2023-02-17T14:18:16.739Z,1.48
2023-02-17T14:21:11.154Z,1.45
2023-02-17T14:23:58.645Z,1.53
2023-02-17T14:26:48.038Z,1.55
2023-02-17T14:29:42.440Z,1.33
2023-02-17T14:32:34.661Z,1.30
2023-02-17T14:35:23.185Z,1.10
2023-02-17T14:38:28.408Z,1.63
2023-02-17T14:41:13.858Z,1.27
2023-02-17T14:44:00.663Z,1.40
2023-02-17T14:46:46.238Z,1.10
2023-02-17T14:49:31.984Z,1.65
2023-02-17T14:52:21.224Z,1.30
2023-02-17T14:55:15.475Z,1.10
2023-02-17T14:58:01.298Z,1.20
2023-02-17T15:00:48.230Z,1.23
2023-02-17T15:03:33.965Z,1.35
2023-02-17T15:06:22.894Z,1.42
2023-02-17T15:09:17.266Z,1.50
2023-02-17T15:12:02.821Z,1.67
2023-02-17T15:14:48.475Z,1.27
2023-02-17T15:17:33.812Z,1.60
2023-02-17T15:20:19.258Z,2.10
2023-02-17T15:23:12.517Z,1.55
2023-02-17T15:25:57.894Z,1.40
2023-02-17T15:28:43.260Z,1.63
2023-02-17T15:31:32.387Z,2.05
2023-02-17T15:34:21.185Z,1.88
2023-02-17T15:37:06.684Z,1.40
2023-02-17T15:39:52.047Z,1.58
2023-02-17T15:42:37.578Z,1.20
2023-02-17T15:45:24.095Z,2.08
2023-02-17T15:48:26.462Z,1.67
2023-02-17T15:51:14.987Z,1.30
2023-02-17T15:54:00.545Z,1.50
2023-02-17T15:56:51.506Z,1.77
2023-02-17T15:59:38.033Z,1.95
2023-02-17T16:02:25.136Z,1.60
2023-02-17T16:05:12.960Z,1.60
2023-02-17T16:07:58.411Z,1.27
2023-02-17T16:10:45.432Z,0.98
2023-02-17T16:13:30.934Z,0.70
2023-02-17T16:16:34.892Z,1.08
2023-02-17T16:19:20.806Z,0.90
2023-02-17T16:22:06.524Z,0.57
2023-02-17T16:24:52.062Z,1.15
2023-02-17T16:27:37.688Z,0.90
2023-02-17T16:30:33.430Z,0.60
2023-02-17T16:33:19.423Z,0.70
2023-02-17T16:36:15.400Z,0.88
2023-02-17T16:39:04.215Z,0.70
2023-02-17T16:41:49.578Z,1.55
2023-02-17T16:44:35.163Z,1.23
2023-02-17T16:47:22.378Z,0.75
2023-02-17T16:50:08.731Z,1.13
2023-02-17T16:52:57.141Z,0.93
2023-02-17T16:55:42.829Z,1.10
2023-02-17T16:58:28.576Z,1.47
2023-02-17T17:01:14.208Z,1.20
2023-02-17T17:03:59.657Z,0.90
2023-02-17T17:06:48.492Z,1.13
2023-02-17T17:09:33.827Z,1.13
2023-02-17T17:12:19.458Z,1.20
2023-02-17T17:15:05.355Z,1.70
2023-02-17T17:18:03.150Z,0.83
2023-02-17T17:20:49.284Z,1.60
2023-02-17T17:23:34.751Z,1.60
2023-02-17T17:26:25.654Z,2.33
2023-02-17T17:29:13.192Z,1.13
2023-02-17T17:31:58.719Z,1.60
2023-02-17T17:34:44.981Z,1.10
2023-02-17T17:37:30.365Z,1.13
2023-02-17T17:40:22.701Z,1.10
2023-02-17T17:43:08.106Z,1.50
2023-02-17T17:45:54.607Z,1.35
2023-02-17T17:48:40.314Z,1.15
2023-02-17T17:51:28.404Z,1.92
2023-02-17T17:54:14.022Z,1.67
2023-02-17T17:56:59.587Z,1.55
2023-02-17T17:59:45.063Z,1.67
2023-02-17T18:02:30.604Z,1.70
2023-02-17T18:05:16.339Z,1.27
2023-02-17T18:08:01.900Z,1.65
2023-02-17T18:10:47.709Z,1.88
2023-02-17T18:13:33.277Z,1.92
2023-02-17T18:16:21.395Z,1.53
2023-02-17T18:19:08.327Z,1.48
2023-02-17T18:21:53.924Z,1.25
2023-02-17T18:24:39.935Z,1.60
2023-02-17T18:27:25.509Z,1.48
2023-02-17T18:30:13.725Z,2.40
2023-02-17T18:32:59.521Z,1.55
2023-02-17T18:35:45.510Z,1.75
2023-02-17T18:38:31.114Z,1.77
2023-02-17T18:41:22.395Z,1.50
2023-02-17T18:44:10.838Z,1.77
2023-02-17T18:46:56.231Z,1.33
2023-02-17T18:49:41.657Z,1.60
2023-02-17T18:52:27.169Z,2.43
2023-02-17T18:55:13.618Z,2.88
2023-02-17T18:57:59.189Z,1.48
2023-02-17T19:00:44.571Z,1.85
2023-02-17T19:03:30.017Z,2.03
2023-02-17T19:06:19.329Z,1.67
2023-02-17T19:09:05.446Z,1.35
2023-02-17T19:11:50.955Z,1.45
2023-02-17T19:14:36.356Z,1.97
2023-02-17T19:17:25.469Z,1.40
2023-02-17T19:20:11.498Z,2.17
2023-02-17T19:22:57.552Z,1.38
2023-02-17T19:25:42.794Z,1.60
2023-02-17T19:28:28.785Z,1.73
2023-02-17T19:31:17.552Z,2.03
2023-02-17T19:34:02.992Z,1.58
2023-02-17T19:36:48.354Z,1.33
2023-02-17T19:39:35.145Z,1.25
2023-02-17T19:42:20.570Z,2.15
2023-02-17T19:45:07.266Z,1.10
2023-02-17T19:47:53.128Z,1.13
2023-02-17T19:50:38.977Z,1.25
2023-02-17T19:53:25.437Z,1.33
2023-02-17T19:56:12.939Z,1.52
2023-02-17T19:58:59.328Z,1.52
2023-02-17T20:01:44.742Z,1.60
2023-02-17T20:04:30.373Z,1.90
2023-02-17T20:07:15.939Z,1.73
2023-02-17T20:10:01.521Z,1.60
2023-02-17T20:12:47.184Z,1.83
2023-02-17T20:15:32.716Z,1.63
2023-02-17T20:18:18.289Z,1.58
2023-02-17T20:21:05.707Z,1.90
2023-02-17T20:23:52.438Z,1.38
2023-02-17T20:26:41.686Z,1.73
2023-02-17T20:29:27.629Z,1.83
2023-02-17T20:32:13.737Z,2.25
2023-02-17T20:34:59.139Z,1.73
2023-02-17T20:37:44.462Z,2.10
2023-02-17T20:40:30.137Z,1.50
2023-02-17T20:43:15.563Z,2.05
2023-02-17T20:46:01.652Z,2.00
2023-02-17T20:48:47.566Z,1.98
2023-02-17T20:51:33.265Z,1.40
2023-02-17T20:54:18.722Z,1.88
2023-02-17T20:57:04.803Z,2.10
2023-02-17T20:59:50.577Z,2.42
2023-02-17T21:02:35.875Z,2.42
2023-02-17T21:05:23.497Z,1.37
2023-02-17T21:08:09.404Z,2.78
2023-02-17T21:10:54.887Z,1.57
2023-02-17T21:13:40.214Z,1.90
2023-02-17T21:16:30.163Z,1.98
2023-02-17T21:19:15.654Z,1.90
2023-02-17T21:22:01.109Z,2.75
2023-02-17T21:24:46.550Z,2.00
2023-02-17T21:27:32.495Z,2.22
2023-02-17T21:30:17.957Z,1.90
2023-02-17T21:33:03.571Z,1.88
2023-02-17T21:35:48.916Z,1.63
2023-02-17T21:38:34.271Z,1.58
2023-02-17T21:41:22.468Z,2.00
2023-02-17T21:44:30.529Z,1.63
2023-02-17T21:47:16.019Z,2.10
2023-02-17T21:50:01.652Z,1.30
2023-02-17T21:52:47.048Z,2.07
2023-02-17T21:55:32.770Z,2.10
2023-02-17T21:58:18.614Z,1.92
2023-02-17T22:01:06.157Z,2.00
2023-02-17T22:03:51.986Z,2.97
2023-02-17T22:06:40.209Z,2.03
2023-02-17T22:09:25.826Z,2.05
2023-02-17T22:12:11.387Z,2.25
2023-02-17T22:14:56.996Z,1.88
2023-02-17T22:17:43.273Z,1.95
2023-02-17T22:20:28.957Z,1.88
2023-02-17T22:23:14.284Z,2.03
2023-02-17T22:25:59.985Z,1.73
2023-02-17T22:28:46.336Z,1.80
2023-02-17T22:31:33.604Z,1.85
2023-02-17T22:34:19.287Z,1.63
2023-02-17T22:37:04.938Z,1.58
2023-02-17T22:39:54.283Z,1.98
2023-02-17T22:42:39.674Z,1.60
2023-02-17T22:45:25.232Z,1.95
2023-02-17T22:48:10.991Z,1.75
2023-02-17T22:50:56.643Z,1.85
2023-02-17T22:53:42.293Z,1.10
2023-02-17T22:56:28.572Z,1.33
2023-02-17T22:59:13.956Z,1.50
2023-02-17T23:01:59.840Z,1.80
2023-02-17T23:04:45.493Z,1.95
2023-02-17T23:07:31.022Z,1.50
2023-02-17T23:10:16.535Z,1.40
2023-02-17T23:13:01.967Z,2.47
2023-02-17T23:15:47.550Z,1.33
2023-02-17T23:18:33.787Z,2.33
2023-02-17T23:21:20.085Z,2.13
2023-02-17T23:24:05.610Z,1.77
2023-02-17T23:26:51.482Z,1.15
2023-02-17T23:29:37.969Z,2.13
2023-02-17T23:32:23.578Z,2.00
2023-02-17T23:35:10.821Z,2.00
2023-02-17T23:37:56.440Z,1.73
2023-02-17T23:40:42.648Z,1.60
2023-02-17T23:43:28.515Z,2.10
2023-02-17T23:46:14.129Z,1.75
2023-02-17T23:48:59.548Z,1.75
2023-02-17T23:51:46.893Z,2.35
2023-02-17T23:54:32.307Z,2.17
2023-02-17T23:57:17.819Z,1.88
